createdAt,value
2023-01-03T00:00:29.300Z,89262.00
2023-01-03T00:01:29.236Z,89264.00
2023-01-03T00:02:29.265Z,89260.00
2023-01-03T00:03:29.171Z,89264.00
2023-01-03T00:04:29.171Z,89262.00
2023-01-03T00:05:29.094Z,89262.00
2023-01-03T00:06:29.062Z,89264.00
2023-01-03T00:07:29.031Z,89262.00
2023-01-03T00:08:29.009Z,89262.00
2023-01-03T00:09:28.949Z,89262.00
2023-01-03T00:10:28.937Z,89262.00
2023-01-03T00:11:28.884Z,89264.00
2023-01-03T00:12:31.357Z,89264.00
2023-01-03T00:13:29.036Z,89264.00
2023-01-03T00:14:29.001Z,89264.00
2023-01-03T00:15:28.922Z,89262.00
2023-01-03T00:16:28.937Z,89260.00
2023-01-03T00:17:28.871Z,89260.00
2023-01-03T00:18:28.832Z,89258.00
2023-01-03T00:19:28.844Z,89256.00
2023-01-03T00:20:28.785Z,89258.00
2023-01-03T00:21:28.827Z,89254.00
2023-01-03T00:22:28.816Z,89250.00
2023-01-03T00:23:28.877Z,89248.00
2023-01-03T00:24:28.864Z,89250.00
2023-01-03T00:28:28.965Z,89254.00
2023-01-03T00:30:29.041Z,89256.00
2023-01-03T00:31:29.066Z,89258.00
2023-01-03T00:32:29.057Z,89254.00
2023-01-03T00:33:29.127Z,89256.00
2023-01-03T00:34:29.105Z,89254.00
2023-01-03T00:35:29.091Z,89254.00
2023-01-03T00:36:29.144Z,89254.00
2023-01-03T00:37:29.149Z,89254.00
2023-01-03T00:38:29.189Z,89254.00
2023-01-03T00:39:29.181Z,89254.00
2023-01-03T00:40:29.187Z,89254.00
2023-01-03T00:41:29.225Z,89252.00
2023-01-03T00:42:29.222Z,89254.00
2023-01-03T00:43:29.231Z,89256.00
2023-01-03T00:44:29.244Z,89258.00
2023-01-03T00:45:35.029Z,89258.00
2023-01-03T00:46:30.307Z,89260.00
2023-01-03T00:47:29.244Z,89262.00
2023-01-03T00:48:29.168Z,89262.00
2023-01-03T00:49:29.104Z,89264.00
2023-01-03T00:50:29.092Z,89260.00
2023-01-03T00:51:29.039Z,89260.00
2023-01-03T00:52:29.007Z,89262.00
2023-01-03T00:53:28.965Z,89260.00
2023-01-03T00:54:28.939Z,89260.00
2023-01-03T00:55:28.887Z,89262.00
2023-01-03T00:56:28.874Z,89264.00
2023-01-03T00:57:28.817Z,89262.00
2023-01-03T00:58:28.755Z,89264.00
2023-01-03T00:59:28.720Z,89264.00
2023-01-03T01:00:28.693Z,89264.00
2023-01-03T01:01:28.737Z,89264.00
2023-01-03T01:02:28.873Z,89264.00
2023-01-03T01:03:28.836Z,89268.00
2023-01-03T01:04:28.609Z,89268.00
2023-01-03T01:05:28.514Z,89270.00
2023-01-03T01:06:28.486Z,89266.00
2023-01-03T01:07:28.445Z,89268.00
2023-01-03T01:08:28.399Z,89270.00
2023-01-03T01:09:28.373Z,89270.00
2023-01-03T01:10:28.320Z,89270.00
2023-01-03T01:11:28.285Z,89268.00
2023-01-03T01:12:28.247Z,89268.00
2023-01-03T01:13:28.189Z,89268.00
2023-01-03T01:14:28.158Z,89266.00
2023-01-03T01:15:28.113Z,89266.00
2023-01-03T01:16:28.146Z,89264.00
2023-01-03T01:17:28.072Z,89264.00
2023-01-03T01:18:27.998Z,89264.00
2023-01-03T01:19:27.957Z,89264.00
2023-01-03T01:20:27.926Z,89266.00
2023-01-03T01:21:27.908Z,89270.00
2023-01-03T01:22:27.849Z,89270.00
2023-01-03T01:23:27.835Z,89272.00
2023-01-03T01:24:27.772Z,89272.00
2023-01-03T01:25:27.733Z,89270.00
2023-01-03T01:26:27.699Z,89270.00
2023-01-03T01:27:27.653Z,89270.00
2023-01-03T01:28:27.948Z,89270.00
2023-01-03T01:29:27.555Z,89270.00
2023-01-03T01:30:27.511Z,89268.00
2023-01-03T01:31:27.550Z,89270.00
2023-01-03T01:32:27.432Z,89268.00
2023-01-03T01:33:27.404Z,89268.00
2023-01-03T01:34:27.376Z,89266.00
2023-01-03T01:35:27.348Z,89268.00
2023-01-03T01:36:27.283Z,89268.00
2023-01-03T01:37:27.236Z,89268.00
2023-01-03T01:38:27.221Z,89266.00
2023-01-03T01:39:27.958Z,89268.00
2023-01-03T01:40:27.138Z,89266.00
2023-01-03T01:41:27.072Z,89270.00
2023-01-03T01:42:30.501Z,89268.00
2023-01-03T01:43:27.023Z,89268.00
2023-01-03T01:44:26.974Z,89266.00
2023-01-03T01:45:26.941Z,89266.00
2023-01-03T01:46:26.981Z,89268.00
2023-01-03T01:47:26.888Z,89266.00
2023-01-03T01:48:26.846Z,89266.00
2023-01-03T01:49:26.823Z,89266.00
2023-01-03T01:50:26.755Z,89266.00
2023-01-03T01:51:26.747Z,89266.00
2023-01-03T01:52:26.702Z,89266.00
2023-01-03T01:53:26.675Z,89268.00
2023-01-03T01:54:26.611Z,89270.00
2023-01-03T01:55:26.607Z,89270.00
2023-01-03T01:56:26.544Z,89272.00
2023-01-03T01:57:26.516Z,89272.00
2023-01-03T01:58:26.472Z,89272.00
2023-01-03T01:59:26.433Z,89272.00
2023-01-03T02:00:26.386Z,89274.00
2023-01-03T02:01:26.558Z,89276.00
2023-01-03T02:02:26.403Z,89276.00
2023-01-03T02:03:26.324Z,89276.00
2023-01-03T02:04:26.244Z,89274.00
2023-01-03T02:05:26.176Z,89274.00
2023-01-03T02:06:26.136Z,89274.00
2023-01-03T02:07:26.104Z,89274.00
2023-01-03T02:08:26.064Z,89272.00
2023-01-03T02:09:26.143Z,89272.00
2023-01-03T02:10:25.963Z,89270.00
2023-01-03T02:11:25.931Z,89274.00
2023-01-03T02:12:25.897Z,89272.00
2023-01-03T02:13:25.971Z,89272.00
2023-01-03T02:14:25.807Z,89274.00
2023-01-03T02:15:25.766Z,89276.00
2023-01-03T02:16:25.814Z,89274.00
2023-01-03T02:17:25.704Z,89274.00
2023-01-03T02:18:25.669Z,89274.00
2023-01-03T02:19:25.607Z,89272.00
2023-01-03T02:20:25.573Z,89274.00
2023-01-03T02:21:25.516Z,89274.00
2023-01-03T02:22:25.493Z,89276.00
2023-01-03T02:23:25.470Z,89274.00
2023-01-03T02:24:25.396Z,89274.00
2023-01-03T02:26:25.316Z,89272.00
2023-01-03T02:27:25.279Z,89272.00
2023-01-03T02:28:25.217Z,89274.00
2023-01-03T02:29:25.197Z,89270.00
2023-01-03T02:30:25.167Z,89270.00
2023-01-03T02:31:25.217Z,89270.00
2023-01-03T02:32:25.064Z,89270.00
2023-01-03T02:33:25.020Z,89268.00
2023-01-03T02:34:25.985Z,89266.00
2023-01-03T02:35:24.961Z,89266.00
2023-01-03T02:36:24.890Z,89268.00
2023-01-03T02:37:24.832Z,89270.00
2023-01-03T02:38:24.799Z,89270.00
2023-01-03T02:39:25.007Z,89270.00
2023-01-03T02:40:24.718Z,89272.00
2023-01-03T02:41:24.671Z,89270.00
2023-01-03T02:42:24.624Z,89270.00
2023-01-03T02:43:24.584Z,89270.00
2023-01-03T02:44:24.554Z,89270.00
2023-01-03T02:45:24.512Z,89270.00
2023-01-03T02:46:24.553Z,89270.00
2023-01-03T02:47:24.438Z,89272.00
2023-01-03T02:48:24.395Z,89270.00
2023-01-03T02:49:24.371Z,89272.00
2023-01-03T02:50:24.341Z,89270.00
2023-01-03T02:51:24.317Z,89272.00
2023-01-03T02:52:24.274Z,89270.00
2023-01-03T02:53:24.301Z,89270.00
2023-01-03T02:54:24.253Z,89268.00
2023-01-03T02:55:24.186Z,89266.00
2023-01-03T02:56:24.142Z,89268.00
2023-01-03T02:57:24.117Z,89266.00
2023-01-03T02:58:24.052Z,89268.00
2023-01-03T02:59:24.520Z,89266.00
2023-01-03T03:00:24.015Z,89268.00
2023-01-03T03:01:24.033Z,89268.00
2023-01-03T03:02:24.042Z,89266.00
2023-01-03T03:03:23.886Z,89270.00
2023-01-03T03:04:23.980Z,89268.00
2023-01-03T03:05:23.781Z,89266.00
2023-01-03T03:06:24.472Z,89264.00
2023-01-03T03:07:23.710Z,89262.00
2023-01-03T03:08:23.660Z,89262.00
2023-01-03T03:09:23.664Z,89266.00
2023-01-03T03:10:23.607Z,89264.00
2023-01-03T03:11:23.585Z,89266.00
2023-01-03T03:12:23.536Z,89264.00
2023-01-03T03:13:23.483Z,89266.00
2023-01-03T03:14:23.457Z,89264.00
2023-01-03T03:15:23.415Z,89264.00
2023-01-03T03:16:23.407Z,89264.00
2023-01-03T03:17:23.348Z,89264.00
2023-01-03T03:18:23.324Z,89264.00
2023-01-03T03:19:23.283Z,89268.00
2023-01-03T03:20:23.228Z,89272.00
2023-01-03T03:21:23.196Z,89270.00
2023-01-03T03:22:23.169Z,89268.00
2023-01-03T03:23:23.140Z,89268.00
2023-01-03T03:24:23.121Z,89268.00
2023-01-03T03:25:23.065Z,89268.00
2023-01-03T03:26:23.055Z,89268.00
2023-01-03T03:27:22.996Z,89268.00
2023-01-03T03:28:22.966Z,89270.00
2023-01-03T03:29:22.931Z,89268.00
2023-01-03T03:30:22.898Z,89270.00
2023-01-03T03:31:23.020Z,89270.00
2023-01-03T03:32:22.834Z,89270.00
2023-01-03T03:33:22.795Z,89270.00
2023-01-03T03:34:22.759Z,89270.00
2023-01-03T03:35:22.764Z,89276.00
2023-01-03T03:36:22.674Z,89274.00
2023-01-03T03:37:22.657Z,89274.00
2023-01-03T03:38:22.605Z,89276.00
2023-01-03T03:39:22.571Z,89274.00
2023-01-03T03:40:22.593Z,89272.00
2023-01-03T03:41:22.520Z,89272.00
2023-01-03T03:42:22.477Z,89274.00
2023-01-03T03:43:22.450Z,89272.00
2023-01-03T03:44:22.441Z,89272.00
2023-01-03T03:45:22.405Z,89270.00
2023-01-03T03:46:22.351Z,89270.00
2023-01-03T03:47:22.342Z,89268.00
2023-01-03T03:48:22.277Z,89268.00
2023-01-03T03:49:22.227Z,89266.00
2023-01-03T03:50:22.228Z,89264.00
2023-01-03T03:51:22.165Z,89262.00
2023-01-03T03:52:22.153Z,89260.00
2023-01-03T03:53:22.105Z,89260.00
2023-01-03T03:54:22.067Z,89258.00
2023-01-03T03:55:22.037Z,89254.00
2023-01-03T03:56:21.982Z,89260.00
2023-01-03T03:57:21.964Z,89258.00
2023-01-03T03:58:21.937Z,89258.00
2023-01-03T03:59:21.891Z,89258.00
2023-01-03T04:00:21.862Z,89258.00
2023-01-03T04:01:21.867Z,89258.00
2023-01-03T04:02:21.929Z,89248.00
2023-01-03T04:03:21.776Z,89252.00
2023-01-03T04:04:21.696Z,89246.00
2023-01-03T04:05:21.671Z,89244.00
2023-01-03T04:06:21.624Z,89246.00
2023-01-03T04:07:21.589Z,89246.00
2023-01-03T04:08:21.554Z,89248.00
2023-01-03T04:09:21.538Z,89248.00
2023-01-03T04:10:21.481Z,89244.00
2023-01-03T04:11:21.438Z,89248.00
2023-01-03T04:12:21.404Z,89244.00
2023-01-03T04:13:21.364Z,89248.00
2023-01-03T04:14:21.334Z,89244.00
2023-01-03T04:15:21.299Z,89244.00
2023-01-03T04:16:21.342Z,89242.00
2023-01-03T04:17:21.232Z,89244.00
2023-01-03T04:18:21.173Z,89244.00
2023-01-03T04:19:21.155Z,89242.00
2023-01-03T04:20:21.098Z,89242.00
2023-01-03T04:21:21.321Z,89244.00
2023-01-03T04:22:21.001Z,89244.00
2023-01-03T04:23:20.971Z,89246.00
2023-01-03T04:24:20.937Z,89248.00
2023-01-03T04:25:20.909Z,89246.00
2023-01-03T04:26:20.848Z,89248.00
2023-01-03T04:27:20.840Z,89250.00
2023-01-03T04:28:20.805Z,89246.00
2023-01-03T04:29:20.752Z,89248.00
2023-01-03T04:30:20.737Z,89250.00
2023-01-03T04:31:20.694Z,89252.00
2023-01-03T04:32:20.673Z,89252.00
2023-01-03T04:33:20.612Z,89254.00
2023-01-03T04:34:20.563Z,89254.00
2023-01-03T04:35:20.530Z,89252.00
2023-01-03T04:36:21.013Z,89254.00
2023-01-03T04:37:20.462Z,89254.00
2023-01-03T04:38:20.443Z,89250.00
2023-01-03T04:39:20.387Z,89248.00
2023-01-03T04:40:20.354Z,89246.00
2023-01-03T04:41:20.346Z,89244.00
2023-01-03T04:42:20.269Z,89244.00
2023-01-03T04:43:20.266Z,89242.00
2023-01-03T04:44:20.228Z,89240.00
2023-01-03T04:45:20.197Z,89242.00
2023-01-03T04:46:20.240Z,89244.00
2023-01-03T04:47:20.124Z,89244.00
2023-01-03T04:48:20.128Z,89246.00
2023-01-03T04:49:20.056Z,89244.00
2023-01-03T04:50:20.030Z,89244.00
2023-01-03T04:51:20.009Z,89246.00
2023-01-03T04:52:19.963Z,89246.00
2023-01-03T04:53:20.512Z,89246.00
2023-01-03T04:54:19.967Z,89242.00
2023-01-03T04:55:19.938Z,89244.00
2023-01-03T04:56:19.913Z,89246.00
2023-01-03T04:57:19.883Z,89246.00
2023-01-03T04:58:19.941Z,89244.00
2023-01-03T04:59:19.817Z,89250.00
2023-01-03T05:00:19.776Z,89250.00
2023-01-03T05:01:19.888Z,89250.00
2023-01-03T05:02:19.922Z,89250.00
2023-01-03T05:03:25.737Z,89252.00
2023-01-03T05:04:20.775Z,89250.00
2023-01-03T05:05:19.636Z,89252.00
2023-01-03T05:06:19.614Z,89254.00
2023-01-03T05:07:19.535Z,89250.00
2023-01-03T05:08:19.513Z,89254.00
2023-01-03T05:09:19.496Z,89254.00
2023-01-03T05:10:19.462Z,89252.00
2023-01-03T05:11:19.450Z,89252.00
2023-01-03T05:12:19.405Z,89254.00
2023-01-03T05:13:19.389Z,89256.00
2023-01-03T05:14:19.336Z,89254.00
2023-01-03T05:15:19.302Z,89254.00
2023-01-03T05:16:19.340Z,89254.00
2023-01-03T05:17:19.254Z,89254.00
2023-01-03T05:18:19.223Z,89252.00
2023-01-03T05:19:19.205Z,89256.00
2023-01-03T05:20:19.180Z,89252.00
2023-01-03T05:21:19.129Z,89252.00
2023-01-03T05:22:19.137Z,89252.00
2023-01-03T05:23:19.100Z,89250.00
2023-01-03T05:24:19.036Z,89248.00
2023-01-03T05:25:19.005Z,89248.00
2023-01-03T05:26:18.974Z,89250.00
2023-01-03T05:46:19.066Z,89264.00
2023-01-03T07:57:14.761Z,89284.00
2023-01-03T07:58:14.735Z,89286.00
2023-01-03T07:59:14.716Z,89290.00
2023-01-03T08:00:14.706Z,89290.00
2023-01-03T08:01:14.859Z,89290.00
2023-01-03T08:02:14.836Z,89292.00
2023-01-03T08:03:14.818Z,89292.00
2023-01-03T08:04:14.835Z,89290.00
2023-01-03T08:05:14.940Z,89295.00
2023-01-03T08:06:14.840Z,89290.00
2023-01-03T08:07:14.854Z,89293.00
2023-01-03T08:08:14.863Z,89290.00
2023-01-03T08:09:14.904Z,89293.00
2023-01-03T08:10:14.986Z,89292.00
2023-01-03T08:11:14.948Z,89290.00
2023-01-03T08:12:14.956Z,89293.00
2023-01-03T08:13:14.997Z,89295.00
2023-01-03T08:14:17.148Z,89295.00
2023-01-03T08:15:14.946Z,89297.00
2023-01-03T08:16:15.006Z,89299.00
2023-01-03T08:17:14.902Z,89297.00
2023-01-03T08:18:14.825Z,89299.00
2023-01-03T08:19:14.818Z,89299.00
2023-01-03T08:20:14.746Z,89299.00
2023-01-03T08:21:14.691Z,89299.00
2023-01-03T08:22:14.659Z,89301.00
2023-01-03T08:23:14.612Z,89299.00
2023-01-03T08:24:14.567Z,89299.00
2023-01-03T08:25:14.518Z,89301.00
2023-01-03T08:26:14.478Z,89303.00
2023-01-03T08:27:14.441Z,89301.00
2023-01-03T08:28:14.436Z,89305.00
2023-01-03T08:29:14.375Z,89305.00
2023-01-03T08:30:14.353Z,89305.00
2023-01-03T08:31:14.378Z,89307.00
2023-01-03T08:32:14.309Z,89307.00
2023-01-03T08:33:14.225Z,89313.00
2023-01-03T08:34:19.647Z,89313.00
2023-01-03T08:35:15.166Z,89311.00
2023-01-03T08:36:14.116Z,89315.00
2023-01-03T08:37:14.084Z,89319.00
2023-01-03T08:38:14.021Z,89321.00
2023-01-03T08:39:14.010Z,89319.00
2023-01-03T08:40:13.992Z,89321.00
2023-01-03T08:41:13.917Z,89321.00
2023-01-03T08:42:13.890Z,89319.00
2023-01-03T08:43:13.822Z,89321.00
2023-01-03T08:44:13.788Z,89321.00
2023-01-03T08:45:13.797Z,89321.00
2023-01-03T08:46:13.715Z,89321.00
2023-01-03T08:47:13.710Z,89321.00
2023-01-03T08:48:13.621Z,89321.00
2023-01-03T08:49:13.579Z,89321.00
2023-01-03T08:50:13.544Z,89319.00
2023-01-03T08:51:13.499Z,89321.00
2023-01-03T08:52:13.460Z,89323.00
2023-01-03T08:53:13.400Z,89319.00
2023-01-03T08:54:13.389Z,89319.00
2023-01-03T08:55:13.375Z,89317.00
2023-01-03T08:56:13.302Z,89319.00
2023-01-03T08:57:13.261Z,89317.00
2023-01-03T08:58:13.230Z,89319.00
2023-01-03T08:59:13.177Z,89319.00
2023-01-03T09:00:13.166Z,89323.00
2023-01-03T09:01:13.169Z,89321.00
2023-01-03T09:02:13.275Z,89323.00
2023-01-03T09:03:13.297Z,89325.00
2023-01-03T09:04:13.081Z,89327.00
2023-01-03T09:05:12.973Z,89327.00
2023-01-03T09:06:12.933Z,89325.00
2023-01-03T09:07:12.883Z,89325.00
2023-01-03T09:08:12.880Z,89323.00
2023-01-03T09:09:12.853Z,89329.00
2023-01-03T09:10:12.769Z,89329.00
2023-01-03T09:11:12.756Z,89331.00
2023-01-03T09:12:12.708Z,89329.00
2023-01-03T09:13:12.677Z,89333.00
2023-01-03T09:14:12.656Z,89331.00
2023-01-03T09:15:12.626Z,89331.00
2023-01-03T09:16:12.632Z,89329.00
2023-01-03T09:17:12.534Z,89327.00
2023-01-03T09:18:12.511Z,89317.00
2023-01-03T09:19:12.555Z,89319.00
2023-01-03T09:20:12.429Z,89317.00
2023-01-03T09:21:12.390Z,89317.00
2023-01-03T09:22:12.353Z,89315.00
2023-01-03T09:23:12.319Z,89317.00
2023-01-03T09:24:12.285Z,89317.00
2023-01-03T09:25:12.281Z,89313.00
2023-01-03T09:26:12.194Z,89313.00
2023-01-03T09:27:12.193Z,89313.00
2023-01-03T09:28:13.111Z,89317.00
2023-01-03T09:29:12.097Z,89317.00
2023-01-03T09:30:12.062Z,89315.00
2023-01-03T09:31:12.113Z,89313.00
2023-01-03T09:32:12.067Z,89315.00
2023-01-03T09:33:11.948Z,89315.00
2023-01-03T09:34:11.899Z,89317.00
2023-01-03T09:35:11.872Z,89317.00
2023-01-03T09:36:11.835Z,89315.00
2023-01-03T09:37:11.803Z,89315.00
2023-01-03T09:38:11.788Z,89315.00
2023-01-03T09:39:11.709Z,89319.00
2023-01-03T09:40:11.674Z,89315.00
2023-01-03T09:41:11.651Z,89319.00
2023-01-03T09:42:11.595Z,89315.00
2023-01-03T09:43:11.586Z,89315.00
2023-01-03T09:44:11.568Z,89315.00
2023-01-03T09:45:11.508Z,89313.00
2023-01-03T09:46:11.469Z,89315.00
2023-01-03T09:47:11.532Z,89313.00
2023-01-03T09:48:11.400Z,89315.00
2023-01-03T09:49:11.360Z,89315.00
2023-01-03T09:50:29.459Z,89317.00
2023-01-03T09:51:21.045Z,89319.00
2023-01-03T09:52:12.234Z,89315.00
2023-01-03T09:53:11.208Z,89319.00
2023-01-03T09:54:11.186Z,89315.00
2023-01-03T09:55:11.144Z,89317.00
2023-01-03T09:56:11.083Z,89317.00
2023-01-03T09:57:11.038Z,89313.00
2023-01-03T09:58:11.018Z,89319.00
2023-01-03T09:59:10.966Z,89319.00
2023-01-03T10:00:10.921Z,89317.00
2023-01-03T10:01:10.971Z,89315.00
2023-01-03T10:02:11.053Z,89315.00
2023-01-03T10:03:10.836Z,89315.00
2023-01-03T10:04:10.783Z,89311.00
2023-01-03T10:05:10.724Z,89315.00
2023-01-03T10:06:10.693Z,89315.00
2023-01-03T10:07:10.685Z,89313.00
2023-01-03T10:08:10.629Z,89315.00
2023-01-03T10:09:10.578Z,89315.00
2023-01-03T10:10:14.229Z,89315.00
2023-01-03T10:11:10.526Z,89311.00
2023-01-03T10:12:10.464Z,89311.00
2023-01-03T10:13:14.687Z,89309.00
2023-01-03T10:14:11.398Z,89309.00
2023-01-03T10:15:10.359Z,89307.00
2023-01-03T10:16:10.372Z,89307.00
2023-01-03T10:17:10.266Z,89307.00
2023-01-03T10:18:10.228Z,89307.00
2023-01-03T10:19:10.187Z,89303.00
2023-01-03T10:20:10.159Z,89301.00
2023-01-03T10:21:10.142Z,89299.00
2023-01-03T10:22:10.108Z,89299.00
2023-01-03T10:23:10.068Z,89295.00
2023-01-03T10:24:09.994Z,89293.00
2023-01-03T10:25:09.962Z,89295.00
2023-01-03T10:26:10.634Z,89293.00
2023-01-03T10:27:09.881Z,89292.00
2023-01-03T10:28:09.860Z,89292.00
2023-01-03T10:29:09.795Z,89288.00
2023-01-03T10:30:09.743Z,89288.00
2023-01-03T10:31:09.718Z,89286.00
2023-01-03T10:32:09.716Z,89284.00
2023-01-03T10:33:09.642Z,89280.00
2023-01-03T10:34:09.580Z,89280.00
2023-01-03T10:35:09.572Z,89280.00
2023-01-03T10:36:09.559Z,89280.00
2023-01-03T10:37:09.470Z,89278.00
2023-01-03T10:38:09.433Z,89282.00
2023-01-03T10:39:10.150Z,89280.00
2023-01-03T10:40:09.348Z,89280.00
2023-01-03T10:41:09.317Z,89274.00
2023-01-03T10:42:09.274Z,89274.00
2023-01-03T10:43:09.240Z,89272.00
2023-01-03T10:44:09.204Z,89272.00
2023-01-03T10:45:09.170Z,89272.00
2023-01-03T10:46:09.140Z,89272.00
2023-01-03T10:47:09.075Z,89270.00
2023-01-03T10:48:09.051Z,89268.00
2023-01-03T10:50:09.940Z,89266.00
2023-01-03T10:51:08.899Z,89264.00
2023-01-03T10:52:08.860Z,89268.00
2023-01-03T10:53:08.845Z,89266.00
2023-01-03T10:54:08.788Z,89266.00
2023-01-03T10:55:08.754Z,89268.00
2023-01-03T10:56:08.724Z,89266.00
2023-01-03T10:57:08.657Z,89266.00
2023-01-03T10:58:08.648Z,89266.00
2023-01-03T10:59:08.583Z,89266.00
2023-01-03T11:00:08.557Z,89264.00
2023-01-03T11:01:08.554Z,89264.00
2023-01-03T11:02:08.699Z,89262.00
2023-01-03T11:03:08.481Z,89260.00
2023-01-03T11:04:08.360Z,89258.00
2023-01-03T11:05:08.336Z,89256.00
2023-01-03T11:06:08.276Z,89254.00
2023-01-03T11:07:08.260Z,89252.00
2023-01-03T11:08:08.190Z,89250.00
2023-01-03T11:09:08.159Z,89246.00
2023-01-03T11:10:08.128Z,89246.00
2023-01-03T11:11:08.073Z,89246.00
2023-01-03T11:12:08.040Z,89248.00
2023-01-03T11:13:08.025Z,89248.00
2023-01-03T11:14:07.959Z,89248.00
2023-01-03T11:15:07.928Z,89250.00
2023-01-03T11:16:07.902Z,89252.00
2023-01-03T11:17:07.910Z,89250.00
2023-01-03T11:18:07.810Z,89250.00
2023-01-03T11:19:07.790Z,89250.00
2023-01-03T11:20:07.737Z,89248.00
2023-01-03T11:21:07.774Z,89248.00
2023-01-03T11:22:07.668Z,89246.00
2023-01-03T11:23:07.604Z,89246.00
2023-01-03T11:24:07.575Z,89246.00
2023-01-03T11:25:07.561Z,89246.00
2023-01-03T11:26:07.476Z,89248.00
2023-01-03T11:27:07.525Z,89248.00
2023-01-03T11:28:10.490Z,89250.00
2023-01-03T11:29:08.350Z,89250.00
2023-01-03T11:30:07.299Z,89252.00
2023-01-03T11:31:07.258Z,89252.00
2023-01-03T11:32:07.299Z,89254.00
2023-01-03T11:33:07.174Z,89256.00
2023-01-03T11:34:07.147Z,89260.00
2023-01-03T11:35:24.251Z,89260.00
2023-01-03T11:36:08.082Z,89264.00
2023-01-03T11:37:07.027Z,89266.00
2023-01-03T11:38:06.975Z,89266.00
2023-01-03T11:39:12.821Z,89266.00
2023-01-03T11:40:07.872Z,89268.00
2023-01-03T11:41:06.850Z,89268.00
2023-01-03T11:42:06.804Z,89268.00
2023-01-03T11:43:06.769Z,89268.00
2023-01-03T11:44:06.718Z,89264.00
2023-01-03T11:45:06.683Z,89262.00
2023-01-03T11:46:06.700Z,89260.00
2023-01-03T11:47:06.580Z,89260.00
2023-01-03T11:48:06.551Z,89258.00
2023-01-03T11:49:06.527Z,89260.00
2023-01-03T11:50:06.466Z,89260.00
2023-01-03T11:51:06.449Z,89256.00
2023-01-03T11:52:06.377Z,89256.00
2023-01-03T11:53:06.359Z,89254.00
2023-01-03T11:54:06.292Z,89250.00
2023-01-03T11:55:06.264Z,89250.00
2023-01-03T11:56:06.209Z,89246.00
2023-01-03T11:57:06.170Z,89244.00
2023-01-03T11:58:06.154Z,89244.00
2023-01-03T11:59:06.091Z,89244.00
2023-01-03T12:00:06.053Z,89242.00
2023-01-03T12:01:06.081Z,89246.00
2023-01-03T12:02:06.116Z,89244.00
2023-01-03T12:03:06.025Z,89244.00
2023-01-03T12:04:05.919Z,89246.00
2023-01-03T12:05:05.845Z,89242.00
2023-01-03T12:06:05.802Z,89242.00
2023-01-03T12:07:45.187Z,89240.00
2023-01-03T12:08:06.720Z,89244.00
2023-01-03T12:09:05.680Z,89238.00
2023-01-03T12:10:05.637Z,89240.00
2023-01-03T12:11:05.612Z,89244.00
2023-01-03T12:12:05.557Z,89242.00
2023-01-03T12:13:05.534Z,89225.00
2023-01-03T12:14:05.717Z,89227.00
2023-01-03T12:15:05.469Z,89224.00
2023-01-03T12:16:05.498Z,89225.00
2023-01-03T12:17:05.384Z,89224.00
2023-01-03T12:18:05.363Z,89224.00
2023-01-03T12:19:11.728Z,89224.00
2023-01-03T12:20:06.265Z,89225.00
2023-01-03T12:21:05.235Z,89227.00
2023-01-03T12:22:05.229Z,89227.00
2023-01-03T12:23:05.150Z,89224.00
2023-01-03T12:24:05.121Z,89225.00
2023-01-03T12:25:05.904Z,89225.00
2023-01-03T12:26:05.026Z,89224.00
2023-01-03T12:27:05.013Z,89227.00
2023-01-03T12:28:04.961Z,89242.00
2023-01-03T12:29:04.924Z,89240.00
2023-01-03T12:30:04.886Z,89240.00
2023-01-03T12:31:04.876Z,89238.00
2023-01-03T12:32:04.799Z,89242.00
2023-01-03T12:33:04.739Z,89238.00
2023-01-03T12:34:04.708Z,89240.00
2023-01-03T12:35:04.672Z,89242.00
2023-01-03T12:36:04.640Z,89244.00
2023-01-03T12:37:04.605Z,89244.00
2023-01-03T12:38:04.560Z,89248.00
2023-01-03T12:39:04.526Z,89248.00
2023-01-03T12:40:04.485Z,89248.00
2023-01-03T12:41:04.477Z,89250.00
2023-01-03T12:42:04.418Z,89250.00
2023-01-03T12:43:04.381Z,89250.00
2023-01-03T12:44:04.383Z,89250.00
2023-01-03T12:45:04.338Z,89252.00
2023-01-03T12:46:10.266Z,89254.00
2023-01-03T12:47:05.381Z,89254.00
2023-01-03T12:48:04.213Z,89256.00
2023-01-03T12:49:04.192Z,89254.00
2023-01-03T12:50:04.155Z,89254.00
2023-01-03T12:51:04.146Z,89256.00
2023-01-03T12:52:04.086Z,89254.00
2023-01-03T12:53:04.051Z,89256.00
2023-01-03T12:54:04.020Z,89252.00
2023-01-03T12:55:03.980Z,89254.00
2023-01-03T12:56:03.954Z,89254.00
2023-01-03T12:57:03.921Z,89254.00
2023-01-03T12:58:03.904Z,89256.00
2023-01-03T12:59:03.846Z,89258.00
2023-01-03T13:00:03.810Z,89260.00
2023-01-03T13:01:03.779Z,89260.00
2023-01-03T13:02:03.800Z,89262.00
2023-01-03T13:03:03.819Z,89262.00
2023-01-03T13:04:03.699Z,89260.00
2023-01-03T13:05:03.642Z,89256.00
2023-01-03T13:06:03.584Z,89258.00
2023-01-03T13:07:03.569Z,89258.00
2023-01-03T13:08:03.496Z,89256.00
2023-01-03T13:09:03.463Z,89256.00
2023-01-03T13:10:03.434Z,89256.00
2023-01-03T13:11:03.386Z,89256.00
2023-01-03T13:12:03.392Z,89256.00
2023-01-03T13:13:03.305Z,89256.00
2023-01-03T13:14:03.269Z,89260.00
2023-01-03T13:15:03.242Z,89258.00
2023-01-03T13:16:03.226Z,89258.00
2023-01-03T13:17:03.137Z,89258.00
2023-01-03T13:18:03.104Z,89258.00
2023-01-03T13:19:03.081Z,89262.00
2023-01-03T13:20:03.732Z,89258.00
2023-01-03T13:21:02.984Z,89258.00
2023-01-03T13:22:02.950Z,89258.00
2023-01-03T13:23:02.908Z,89256.00
2023-01-03T13:24:02.876Z,89256.00
2023-01-03T13:25:02.847Z,89258.00
2023-01-03T13:26:02.857Z,89260.00
2023-01-03T13:27:02.778Z,89260.00
2023-01-03T13:28:02.719Z,89262.00
2023-01-03T13:29:02.698Z,89264.00
2023-01-03T13:30:02.664Z,89264.00
2023-01-03T13:31:02.740Z,89264.00
2023-01-03T13:32:02.599Z,89266.00
2023-01-03T13:33:02.548Z,89268.00
2023-01-03T13:34:02.520Z,89268.00
2023-01-03T13:35:02.494Z,89272.00
2023-01-03T13:36:02.465Z,89266.00
2023-01-03T13:37:02.408Z,89268.00
2023-01-03T13:38:02.377Z,89266.00
2023-01-03T13:39:02.324Z,89266.00
2023-01-03T13:40:02.320Z,89268.00
2023-01-03T13:41:19.108Z,89264.00
2023-01-03T13:42:03.230Z,89266.00
2023-01-03T13:43:02.168Z,89262.00
2023-01-03T13:44:02.138Z,89260.00
2023-01-03T13:45:02.120Z,89258.00
2023-01-03T13:46:02.079Z,89256.00
2023-01-03T13:47:02.036Z,89256.00
2023-01-03T13:48:01.972Z,89256.00
2023-01-03T13:49:01.965Z,89256.00
2023-01-03T13:50:01.948Z,89256.00
2023-01-03T13:51:01.928Z,89254.00
2023-01-03T13:52:01.850Z,89256.00
2023-01-03T13:53:01.828Z,89256.00
2023-01-03T13:54:01.781Z,89256.00
2023-01-03T13:55:01.743Z,89256.00
2023-01-03T13:56:01.713Z,89256.00
2023-01-03T13:57:01.680Z,89256.00
2023-01-03T13:58:01.613Z,89254.00
2023-01-03T13:59:01.615Z,89254.00
2023-01-03T14:00:01.585Z,89256.00
2023-01-03T14:01:05.836Z,89254.00
2023-01-03T14:02:01.572Z,89254.00
2023-01-03T14:03:01.653Z,89258.00
2023-01-03T14:04:01.499Z,89256.00
2023-01-03T14:05:01.369Z,89258.00
2023-01-03T14:06:01.367Z,89258.00
2023-01-03T14:07:01.325Z,89258.00
2023-01-03T14:08:01.275Z,89258.00
2023-01-03T14:09:01.272Z,89260.00
2023-01-03T14:10:01.189Z,89262.00
2023-01-03T14:11:01.150Z,89264.00
2023-01-03T14:12:01.092Z,89266.00
2023-01-03T14:13:01.080Z,89268.00
2023-01-03T14:14:01.019Z,89270.00
2023-01-03T14:15:00.998Z,89272.00
2023-01-03T14:16:01.089Z,89270.00
2023-01-03T14:17:00.935Z,89270.00
2023-01-03T14:18:00.888Z,89274.00
2023-01-03T14:19:00.865Z,89272.00